Time;durP1;ratioP1;P1;durP2;ratioP2;P2;SDS_P1;SDS_P2;PMS_P1;PMS_P2;Temp;Humidity;BMP_temperature;BMP_pressure;BME280_temperature;BME280_humidity;BME280_pressure;Samples;Min_cycle;Max_cycle;Signal;HPM_P1;HPM_P2
2020/12/07 00:01:19;;;;;;;;;;;;;;;;;;;;;
2020/12/07 00:11:35;;;;;;;32.17;16.23;;;4.60;99.90;;;;;;4916507;29;20531;-85
2020/12/07 00:17:34;;;;;;;27.60;15.43;;;4.60;99.90;;;;;;4900984;29;20424;-84
2020/12/07 11:26:43;;;;;;;13.07;7.97;;;7.40;99.90;;;;;;4989387;28;20472;-81
2020/12/07 11:29:12;;;;;;;9.00;6.13;;;7.60;99.90;;;;;;4990714;28;20809;-81
2020/12/07 11:31:38;;;;;;;11.57;7.57;;;7.60;99.90;;;;;;4983180;28;20189;-81
2020/12/07 11:34:06;;;;;;;10.90;6.70;;;7.50;99.90;;;;;;4987552;28;20487;-81
2020/12/07 11:36:38;;;;;;;11.00;7.33;;;7.40;99.90;;;;;;4983479;28;20238;-82
2020/12/07 11:44:17;;;;;;;10.33;6.93;;;7.60;99.90;;;;;;4983055;28;20475;-80
2020/12/07 11:46:48;;;;;;;11.40;7.57;;;7.80;99.90;;;;;;4987836;28;20444;-84
2020/12/07 11:49:13;;;;;;;12.33;8.20;;;8.00;99.90;;;;;;4987601;28;20444;-79
2020/12/07 11:51:39;;;;;;;10.53;7.10;;;8.20;99.90;;;;;;4974480;28;20459;-82
2020/12/07 11:54:05;;;;;;;11.77;6.80;;;8.30;99.90;;;;;;4984299;28;20224;-76
2020/12/07 11:56:34;;;;;;;12.30;7.87;;;8.40;99.90;;;;;;4990834;28;20182;-79
2020/12/07 11:59:04;;;;;;;11.30;7.60;;;8.40;99.90;;;;;;4984708;28;20987;-83
2020/12/07 12:01:59;;;;;;;11.60;7.27;;;8.40;99.90;;;;;;4991426;28;20920;-84
2020/12/07 12:04:58;;;;;;;11.80;6.60;;;8.40;99.90;;;;;;4989318;28;20443;-85
2020/12/07 12:07:28;;;;;;;11.80;7.00;;;8.30;99.90;;;;;;4991614;28;20797;-84
2020/12/07 12:09:57;;;;;;;12.50;6.97;;;8.10;99.90;;;;;;4989601;28;20425;-84
2020/12/07 12:12:27;;;;;;;15.30;7.83;;;8.00;99.90;;;;;;4991016;28;20463;-83
2020/12/07 12:18:44;;;;;;;11.00;7.63;;;7.70;99.90;;;;;;4992069;28;20415;-85
2020/12/07 12:34:39;;;;;;;11.97;7.70;;;7.60;99.90;;;;;;4987996;28;20463;-83
2020/12/07 12:46:53;;;;;;;11.50;8.60;;;7.40;99.90;;;;;;4962074;28;20882;-83
2020/12/07 12:50:16;;;;;;;13.63;9.63;;;7.40;99.90;;;;;;4989108;28;20468;-82
2020/12/07 12:52:44;;;;;;;13.83;8.50;;;7.40;99.90;;;;;;4992625;28;20218;-84
2020/12/07 12:56:24;;;;;;;13.37;7.80;;;7.50;99.90;;;;;;4989255;28;20401;-84
2020/12/07 13:04:06;;;;;;;15.30;8.70;;;7.30;99.90;;;;;;5119043;23;20484;-85
2020/12/07 13:06:35;;;;;;;9.70;7.90;;;7.30;99.90;;;;;;4960343;28;20470;-84
2020/12/07 13:09:02;;;;;;;12.17;7.43;;;7.20;99.90;;;;;;4945330;28;21029;-84
2020/12/07 13:14:37;;;;;;;12.47;7.87;;;7.20;99.90;;;;;;4950128;28;20442;-84
2020/12/07 13:17:09;;;;;;;13.13;7.60;;;7.20;99.90;;;;;;4946045;28;20466;-84
2020/12/07 13:19:53;;;;;;;10.57;7.27;;;7.40;99.90;;;;;;4947864;28;20202;-84
2020/12/07 13:22:37;;;;;;;15.70;7.50;;;7.50;99.90;;;;;;4938525;28;20442;-84
2020/12/07 13:25:07;;;;;;;14.03;9.50;;;7.70;99.90;;;;;;4944301;28;20452;-83
2020/12/07 13:30:20;;;;;;;10.10;8.07;;;7.50;99.90;;;;;;4949298;28;20442;-84
2020/12/07 13:32:46;;;;;;;14.43;8.80;;;7.60;99.90;;;;;;4944167;28;20882;-84
2020/12/07 13:35:11;;;;;;;12.80;8.50;;;7.50;99.90;;;;;;4953356;28;20438;-84
2020/12/07 13:37:37;;;;;;;11.77;8.47;;;7.60;99.90;;;;;;4949705;28;20199;-84
2020/12/07 13:40:04;;;;;;;12.53;7.90;;;7.70;99.90;;;;;;4954595;28;20199;-83
2020/12/07 13:42:45;;;;;;;14.37;8.70;;;7.90;99.90;;;;;;4947690;28;20245;-85
2020/12/07 13:45:11;;;;;;;11.77;8.85;;;7.90;99.90;;;;;;4951236;28;20482;-84
2020/12/07 13:47:42;;;;;;;12.27;8.20;;;8.00;99.90;;;;;;4950095;28;20187;-83
2020/12/07 13:50:08;;;;;;;13.73;8.63;;;8.00;99.90;;;;;;4948330;28;20470;-82
2020/12/07 13:52:33;;;;;;;11.83;7.93;;;8.10;99.90;;;;;;4949587;28;20483;-83
2020/12/07 13:58:24;;;;;;;12.37;7.67;;;8.00;99.90;;;;;;4935578;28;20255;-84
2020/12/07 14:00:53;;;;;;;13.27;8.13;;;7.90;99.90;;;;;;4946624;28;20492;-85
2020/12/07 14:03:19;;;;;;;14.20;8.13;;;8.10;99.90;;;;;;4949198;28;20516;-82
2020/12/07 14:06:28;;;;;;;10.47;7.67;;;8.20;99.90;;;;;;4951941;28;20440;-84
2020/12/07 14:08:55;;;;;;;11.93;7.77;;;8.30;99.90;;;;;;4951993;28;20862;-84
2020/12/07 14:11:23;;;;;;;14.67;8.07;;;8.30;99.90;;;;;;4951126;28;20432;-84
2020/12/07 14:13:49;;;;;;;11.43;6.77;;;8.30;99.90;;;;;;4948826;28;20560;-84
2020/12/07 14:16:17;;;;;;;12.47;7.67;;;8.20;99.90;;;;;;4969130;28;20431;-84
2020/12/07 14:19:08;;;;;;;11.60;7.67;;;8.20;99.90;;;;;;4961694;28;20473;-85
2020/12/07 14:21:58;;;;;;;10.77;7.50;;;8.20;99.90;;;;;;4958464;28;20517;-85
2020/12/07 14:40:54;;;;;;;9.93;6.80;;;7.80;99.90;;;;;;4967979;28;20407;-85
2020/12/07 14:43:23;;;;;;;10.50;7.20;;;7.80;99.90;;;;;;4953218;28;20439;-85
2020/12/07 14:45:56;;;;;;;11.27;6.70;;;7.80;99.90;;;;;;4955241;28;20194;-86
2020/12/07 14:48:34;;;;;;;10.20;7.20;;;7.70;99.90;;;;;;4947366;28;20462;-86
2020/12/07 14:51:08;;;;;;;12.80;7.13;;;7.70;99.90;;;;;;4951821;28;20438;-85
2020/12/07 14:53:34;;;;;;;9.83;7.23;;;7.70;99.90;;;;;;4950863;28;20474;-85
2020/12/07 15:07:06;;;;;;;8.97;6.40;;;7.60;99.90;;;;;;4945012;28;20940;-87
2020/12/07 15:20:05;;;;;;;9.40;7.50;;;7.30;99.90;;;;;;4949173;28;21036;-86
2020/12/07 15:23:06;;;;;;;11.57;7.90;;;7.10;99.90;;;;;;4945676;28;20475;-85
2020/12/07 15:25:36;;;;;;;13.67;7.63;;;6.80;99.90;;;;;;4957745;28;20435;-88
2020/12/07 15:28:01;;;;;;;11.73;8.23;;;6.70;99.90;;;;;;4952500;28;20455;-89
2020/12/07 15:30:27;;;;;;;10.17;7.70;;;6.60;99.90;;;;;;4954108;28;20479;-89
2020/12/07 15:32:53;;;;;;;10.10;7.23;;;6.60;99.90;;;;;;4957928;28;20297;-89
2020/12/07 15:35:22;;;;;;;13.77;9.53;;;6.60;99.90;;;;;;4974899;28;20426;-89
2020/12/07 15:37:48;;;;;;;12.77;8.37;;;6.50;99.90;;;;;;4969062;28;20487;-88
2020/12/07 15:40:14;;;;;;;10.97;8.07;;;6.60;99.90;;;;;;4972450;28;20462;-88
2020/12/07 15:42:40;;;;;;;12.77;8.77;;;6.70;99.90;;;;;;4974084;28;20455;-89
2020/12/07 15:45:18;;;;;;;10.73;7.67;;;6.70;99.90;;;;;;4976463;28;20258;-88
2020/12/07 15:51:27;;;;;;;12.17;8.53;;;6.80;99.90;;;;;;4945740;29;20423;-88
2020/12/07 15:53:54;;;;;;;16.60;8.80;;;6.70;99.90;;;;;;4931275;29;20924;-88
2020/12/07 15:56:54;;;;;;;15.77;8.73;;;6.70;99.90;;;;;;4953222;28;20442;-87
2020/12/07 15:59:22;;;;;;;12.60;9.23;;;6.70;99.90;;;;;;4954762;28;20927;-87
2020/12/07 16:01:48;;;;;;;16.50;9.80;;;6.70;99.90;;;;;;4949011;28;20436;-87
2020/12/07 16:04:14;;;;;;;16.03;9.07;;;6.70;99.90;;;;;;4967694;28;20461;-87
2020/12/07 16:06:39;;;;;;;12.03;7.43;;;6.70;99.90;;;;;;4934723;28;20300;-87
2020/12/07 16:09:05;;;;;;;12.90;8.90;;;6.60;99.90;;;;;;4947500;28;20622;-88
2020/12/07 16:11:31;;;;;;;14.90;9.30;;;6.50;99.90;;;;;;4946712;28;20195;-86
2020/12/07 16:17:21;;;;;;;13.47;8.57;;;6.40;99.90;;;;;;4909270;29;20196;-88
2020/12/07 16:19:47;;;;;;;15.57;8.80;;;6.40;99.90;;;;;;4870402;29;20495;-88
2020/12/07 16:22:12;;;;;;;11.53;8.60;;;6.30;99.90;;;;;;4936426;28;20207;-87
2020/12/07 16:24:38;;;;;;;16.30;9.77;;;6.30;99.90;;;;;;4950787;28;20191;-88
2020/12/07 16:27:04;;;;;;;12.77;8.60;;;6.30;99.90;;;;;;4943854;28;20563;-88
2020/12/07 16:29:30;;;;;;;10.90;6.70;;;6.20;99.90;;;;;;4953651;28;20199;-88
2020/12/07 16:32:02;;;;;;;11.33;9.43;;;6.10;99.90;;;;;;4944183;28;20453;-88
2020/12/07 16:34:28;;;;;;;14.83;9.10;;;6.00;99.90;;;;;;4952369;28;20598;-88
2020/12/07 16:36:53;;;;;;;14.70;11.27;;;5.90;99.90;;;;;;4951782;28;20456;-88
2020/12/07 16:39:19;;;;;;;13.87;9.33;;;5.80;99.90;;;;;;4934108;28;20197;-88
2020/12/07 16:41:49;;;;;;;15.40;9.90;;;5.70;99.90;;;;;;4953687;28;21031;-87
2020/12/07 16:44:15;;;;;;;12.13;8.13;;;5.60;99.90;;;;;;4960007;28;20227;-87
2020/12/07 16:47:30;;;;;;;14.00;9.40;;;5.50;99.90;;;;;;4950138;28;20450;-87
2020/12/07 16:49:56;;;;;;;14.97;10.50;;;5.50;99.90;;;;;;4963021;28;20570;-87
2020/12/07 16:52:22;;;;;;;14.57;9.60;;;5.40;99.90;;;;;;4942870;28;20426;-87
2020/12/07 16:54:48;;;;;;;18.37;10.50;;;5.30;99.90;;;;;;4946227;28;20245;-87
2020/12/07 16:57:14;;;;;;;15.63;10.13;;;5.20;99.90;;;;;;4946928;28;20537;-88
2020/12/07 16:59:40;;;;;;;17.60;10.97;;;5.10;99.90;;;;;;4938045;28;20290;-87
2020/12/07 17:02:05;;;;;;;18.57;11.80;;;5.00;99.90;;;;;;4959537;28;20317;-88
2020/12/07 17:04:31;;;;;;;17.30;10.70;;;4.90;99.90;;;;;;4949836;28;20443;-88
2020/12/07 17:06:57;;;;;;;16.03;10.67;;;4.90;99.90;;;;;;4952734;28;20191;-87
2020/12/07 17:09:23;;;;;;;17.10;11.97;;;4.80;99.90;;;;;;4931261;28;20712;-87
2020/12/07 17:11:53;;;;;;;20.27;12.00;;;4.70;99.90;;;;;;4945005;28;21837;-87
2020/12/07 17:14:23;;;;;;;21.00;13.50;;;4.70;99.90;;;;;;4943591;28;20843;-87
2020/12/07 17:16:59;;;;;;;19.30;12.40;;;4.60;99.90;;;;;;4949712;28;20476;-85
2020/12/07 17:19:25;;;;;;;19.80;12.67;;;4.60;99.90;;;;;;4939898;28;20462;-85
2020/12/07 17:21:50;;;;;;;16.67;11.47;;;4.50;99.90;;;;;;4949694;28;20455;-86
2020/12/07 17:24:17;;;;;;;19.20;13.30;;;4.50;99.90;;;;;;4958456;28;20457;-85
2020/12/07 17:26:44;;;;;;;17.73;12.10;;;4.40;99.90;;;;;;4959091;28;20945;-86
2020/12/07 17:29:11;;;;;;;19.23;11.60;;;4.40;99.90;;;;;;4956888;28;20439;-87
2020/12/07 17:35:07;;;;;;;16.20;10.43;;;4.40;99.90;;;;;;5155507;23;20640;-85
2020/12/07 19:48:19;;;;;;;14.67;10.23;;;2.30;99.90;;;;;;5341153;23;20498;-83
2020/12/07 22:26:26;;;;;;;10.33;7.47;;;1.50;99.90;;;;;;4929606;28;20921;-85
2020/12/07 22:33:30;;;;;;;7.70;5.57;;;1.60;99.90;;;;;;4944373;28;20508;-86
